Terminal Aerodrome Forecast
Issued by NWS Memphis, TN

Home | Current Version | Previous Version | Text Only | Print | Product List | Glossary On
Versions: 1 2 3 4 5 6 7 8 9 10 11 12 13 14 15
000
FTUS44 KMEG 251130
TAFMKL
TAF
KMKL 251130Z 2512/2612 00000KT P6SM BKN150
      TEMPO 2512/2514 3SM BR SKC
     FM251400 VRB03KT P6SM SCT040 SCT250
     FM251800 24005KT P6SM VCTS BKN040CB BKN250
      TEMPO 2519/2523 VRB15G25KT 3SM TSRA OVC040CB
     FM260100 VRB03KT P6SM VCSH SCT050 BKN150
     FM260800 18002KT P6SM OVC250
      TEMPO 2608/2612 2SM BR SKC=

USA.gov is the U.S. government's official web portal to all federal, state and local government web resources and services.